PWSweather.com
Personal Weather Stations
Station Observations
KNVELKO7
Elko, NV 89801

Elko, NV 89801

Lat: 40.963233, Lon: -115.592836

Elevation: 5230

Station Type: WS-2812

High Low Average
Temperature 52.7°F11.5°C 28.4°F-2.0°C 41.1°F5.1°C
Dew Point 33.8°F1.0°C 18.5°F-7.5°C 23.7°F-4.6°C
Winds 18.6 mph 29.9 kmh Calm Calm 7.0 mph SW11.3 kmh SW
Wind Gusts 22.6 mph36.4 kmh -- 10.0 mph16.1 kmh
Humidity 78% 29% 53%
Pressure 30.25 in1024.4 mb 29.95 in1014.2 mb -
Precipitation 0.00 in0.0 mm - -
Hour Temp Dew Point Humidity Winds Wind Gusts Pressure Precip Precip Rate Daily Precip Total
12:01 AM 35.6°F2.0°C 29.4°F-1.4°C 78% 3.5 mph SE5.6 kmh SE 5.1 mph8.2 kmh 29.94 in1013.9 mb 0.00 in0.0 mm 0.00 in0.0 mm 0.00 in0.0 mm
12:06 AM 35.6°F2.0°C 29.4°F-1.4°C 78% 3.8 mph SE6.1 kmh SE 4.5 mph7.2 kmh 29.94 in1013.9 mb 0.00 in0.0 mm 0.00 in0.0 mm 0.00 in0.0 mm
12:11 AM 35.6°F2.0°C 29.4°F-1.4°C 78% 4.0 mph SW6.4 kmh SW 4.0 mph6.4 kmh 29.95 in1014.2 mb 0.00 in0.0 mm 0.00 in0.0 mm 0.00 in0.0 mm
12:16 AM 35.6°F2.0°C 29.4°F-1.4°C 78% 1.7 mph SW2.7 kmh SW 4.0 mph6.4 kmh 29.95 in1014.2 mb 0.00 in0.0 mm 0.00 in0.0 mm 0.00 in0.0 mm
12:21 AM 35.8°F2.1°C 29.6°F-1.3°C 78% 3.3 mph SW5.3 kmh SW 4.0 mph6.4 kmh 29.95 in1014.2 mb 0.00 in0.0 mm 0.00 in0.0 mm 0.00 in0.0 mm
12:26 AM 35.8°F2.1°C 29.6°F-1.3°C 78% 2.2 mph SW3.5 kmh SW 5.4 mph8.7 kmh 29.95 in1014.2 mb 0.00 in0.0 mm 0.00 in0.0 mm 0.00 in0.0 mm
12:31 AM 35.8°F2.1°C 29.6°F-1.3°C 78% 5.9 mph WSW9.5 kmh WSW 7.6 mph12.2 kmh 29.95 in1014.2 mb 0.00 in0.0 mm 0.00 in0.0 mm 0.00 in0.0 mm
12:36 AM 36.2°F2.3°C 30.0°F-1.1°C 78% 3.2 mph W5.1 kmh W 7.6 mph12.2 kmh 29.96 in1014.6 mb 0.00 in0.0 mm 0.00 in0.0 mm 0.00 in0.0 mm
12:41 AM 36.0°F2.2°C 29.4°F-1.4°C 77% 2.2 mph W3.5 kmh W 7.4 mph11.9 kmh 29.96 in1014.6 mb 0.00 in0.0 mm 0.00 in0.0 mm 0.00 in0.0 mm
12:46 AM 35.8°F2.1°C 29.3°F-1.5°C 77% 5.4 mph NW8.7 kmh NW 5.4 mph8.7 kmh 29.96 in1014.6 mb 0.00 in0.0 mm 0.00 in0.0 mm 0.00 in0.0 mm
12:51 AM 35.6°F2.0°C 29.1°F-1.6°C 77% 6.0 mph NW9.7 kmh NW 8.1 mph13.0 kmh 29.95 in1014.2 mb 0.00 in0.0 mm 0.00 in0.0 mm 0.00 in0.0 mm
12:56 AM 35.6°F2.0°C 29.1°F-1.6°C 77% 5.0 mph NW8.0 kmh NW 8.1 mph13.0 kmh 29.95 in1014.2 mb 0.00 in0.0 mm 0.00 in0.0 mm 0.00 in0.0 mm
01:01 AM 35.5°F1.9°C 28.9°F-1.7°C 77% 3.5 mph N5.6 kmh N 5.6 mph9.0 kmh 29.95 in1014.2 mb 0.00 in0.0 mm 0.00 in0.0 mm 0.00 in0.0 mm
01:06 AM 35.1°F1.7°C 28.5°F-1.9°C 77% 1.0 mph 1.6 kmh 4.0 mph6.4 kmh 29.96 in1014.6 mb 0.00 in0.0 mm 0.00 in0.0 mm 0.00 in0.0 mm
01:11 AM 34.9°F1.6°C 28.4°F-2.0°C 77% Calm Calm 2.5 mph4.0 kmh 29.96 in1014.6 mb 0.00 in0.0 mm 0.00 in0.0 mm 0.00 in0.0 mm
01:16 AM 34.7°F1.5°C 27.9°F-2.3°C 76% 1.5 mph ESE2.4 kmh ESE 2.2 mph3.5 kmh 29.96 in1014.6 mb 0.00 in0.0 mm 0.00 in0.0 mm 0.00 in0.0 mm
01:21 AM 34.4°F1.3°C 27.6°F-2.4°C 76% 3.3 mph SE5.3 kmh SE 4.0 mph6.4 kmh 29.95 in1014.2 mb 0.00 in0.0 mm 0.00 in0.0 mm 0.00 in0.0 mm
01:26 AM 34.0°F1.1°C 27.2°F-2.7°C 76% 3.1 mph SE5.0 kmh SE 4.0 mph6.4 kmh 29.95 in1014.2 mb 0.00 in0.0 mm 0.00 in0.0 mm 0.00 in0.0 mm
01:31 AM 33.7°F0.9°C 26.8°F-2.9°C 76% 2.5 mph SSW4.0 kmh SSW 4.0 mph6.4 kmh 29.95 in1014.2 mb 0.00 in0.0 mm 0.00 in0.0 mm 0.00 in0.0 mm
01:36 AM 33.3°F0.7°C 26.8°F-2.9°C 77% 0.2 mph S0.3 kmh S 2.9 mph4.7 kmh 29.95 in1014.2 mb 0.00 in0.0 mm 0.00 in0.0 mm 0.00 in0.0 mm
01:41 AM 33.1°F0.6°C 27.0°F-2.8°C 78% 2.6 mph ESE4.2 kmh ESE 4.7 mph7.6 kmh 29.95 in1014.2 mb 0.00 in0.0 mm 0.00 in0.0 mm 0.00 in0.0 mm
01:46 AM 33.1°F0.6°C 27.0°F-2.8°C 78% 4.9 mph E7.9 kmh E 6.3 mph10.1 kmh 29.95 in1014.2 mb 0.00 in0.0 mm 0.00 in0.0 mm 0.00 in0.0 mm
01:51 AM 33.1°F0.6°C 27.0°F-2.8°C 78% 4.3 mph SE6.9 kmh SE 6.3 mph10.1 kmh 29.95 in1014.2 mb 0.00 in0.0 mm 0.00 in0.0 mm 0.00 in0.0 mm
01:56 AM 32.9°F0.5°C 26.8°F-2.9°C 78% 3.8 mph ENE6.1 kmh ENE 4.7 mph7.6 kmh 29.95 in1014.2 mb 0.00 in0.0 mm 0.00 in0.0 mm 0.00 in0.0 mm
02:02 AM 33.1°F0.6°C 27.0°F-2.8°C 78% 4.2 mph NE6.8 kmh NE 4.9 mph7.9 kmh 29.95 in1014.2 mb 0.00 in0.0 mm 0.00 in0.0 mm 0.00 in0.0 mm
02:07 AM 33.3°F0.7°C 27.1°F-2.7°C 78% 0.9 mph NW1.4 kmh NW 4.9 mph7.9 kmh 29.95 in1014.2 mb 0.00 in0.0 mm 0.00 in0.0 mm 0.00 in0.0 mm
02:11 AM 33.5°F0.8°C 27.3°F-2.6°C 78% 0.6 mph SSE1.0 kmh SSE 4.9 mph7.9 kmh 29.95 in1014.2 mb 0.00 in0.0 mm 0.00 in0.0 mm 0.00 in0.0 mm
02:16 AM 33.1°F0.6°C 26.6°F-3.0°C 77% 1.1 mph S1.8 kmh S 1.8 mph2.9 kmh 29.95 in1014.2 mb 0.00 in0.0 mm 0.00 in0.0 mm 0.00 in0.0 mm
02:21 AM 32.9°F0.5°C 26.5°F-3.1°C 77% 2.4 mph SW3.9 kmh SW 3.6 mph5.8 kmh 29.95 in1014.2 mb 0.00 in0.0 mm 0.00 in0.0 mm 0.00 in0.0 mm
02:26 AM 32.8°F0.4°C 26.3°F-3.2°C 77% 4.6 mph SW7.4 kmh SW 5.8 mph9.3 kmh 29.95 in1014.2 mb 0.00 in0.0 mm 0.00 in0.0 mm 0.00 in0.0 mm
02:31 AM 32.9°F0.5°C 26.8°F-2.9°C 78% 6.4 mph W10.3 kmh W 6.7 mph10.8 kmh 29.96 in1014.6 mb 0.00 in0.0 mm 0.00 in0.0 mm 0.00 in0.0 mm
02:36 AM 33.5°F0.8°C 27.0°F-2.8°C 77% 6.4 mph NW10.3 kmh NW 10.3 mph16.6 kmh 29.96 in1014.6 mb 0.00 in0.0 mm 0.00 in0.0 mm 0.00 in0.0 mm
02:41 AM 33.7°F0.9°C 26.8°F-2.9°C 76% 8.4 mph NW13.5 kmh NW 10.3 mph16.6 kmh 29.96 in1014.6 mb 0.00 in0.0 mm 0.00 in0.0 mm 0.00 in0.0 mm
02:46 AM 34.2°F1.2°C 27.0°F-2.8°C 75% 8.5 mph NW13.7 kmh NW 10.7 mph17.2 kmh 29.96 in1014.6 mb 0.00 in0.0 mm 0.00 in0.0 mm 0.00 in0.0 mm
02:51 AM 34.7°F1.5°C 26.9°F-2.8°C 73% 7.9 mph WNW12.7 kmh WNW 10.7 mph17.2 kmh 29.96 in1014.6 mb 0.00 in0.0 mm 0.00 in0.0 mm 0.00 in0.0 mm
02:56 AM 34.6°F1.4°C 26.7°F-2.9°C 73% 8.1 mph WNW13.0 kmh WNW 9.2 mph14.8 kmh 29.96 in1014.6 mb 0.00 in0.0 mm 0.00 in0.0 mm 0.00 in0.0 mm
03:02 AM 34.7°F1.5°C 26.6°F-3.0°C 72% 6.5 mph W10.5 kmh W 9.2 mph14.8 kmh 29.97 in1014.9 mb 0.00 in0.0 mm 0.00 in0.0 mm 0.00 in0.0 mm
03:07 AM 34.9°F1.6°C 27.1°F-2.7°C 73% 3.5 mph WSW5.6 kmh WSW 7.6 mph12.2 kmh 29.97 in1014.9 mb 0.00 in0.0 mm 0.00 in0.0 mm 0.00 in0.0 mm
03:12 AM 34.6°F1.4°C 26.7°F-2.9°C 73% 5.8 mph WSW9.3 kmh WSW 6.9 mph11.1 kmh 29.97 in1014.9 mb 0.00 in0.0 mm 0.00 in0.0 mm 0.00 in0.0 mm
03:17 AM 34.2°F1.2°C 26.4°F-3.1°C 73% 7.7 mph WSW12.4 kmh WSW 9.8 mph15.8 kmh 29.97 in1014.9 mb 0.00 in0.0 mm 0.00 in0.0 mm 0.00 in0.0 mm
03:22 AM 34.4°F1.3°C 26.6°F-3.0°C 73% 7.9 mph WSW12.7 kmh WSW 10.1 mph16.3 kmh 29.97 in1014.9 mb 0.00 in0.0 mm 0.00 in0.0 mm 0.00 in0.0 mm
03:27 AM 34.2°F1.2°C 26.6°F-3.0°C 74% 7.2 mph W11.6 kmh W 10.1 mph16.3 kmh 29.97 in1014.9 mb 0.00 in0.0 mm 0.00 in0.0 mm 0.00 in0.0 mm
03:32 AM 34.2°F1.2°C 26.6°F-3.0°C 74% 7.5 mph WSW12.1 kmh WSW 9.2 mph14.8 kmh 29.97 in1014.9 mb 0.00 in0.0 mm 0.00 in0.0 mm 0.00 in0.0 mm
03:37 AM 33.8°F1.0°C 26.3°F-3.2°C 74% 6.6 mph WSW10.6 kmh WSW 9.8 mph15.8 kmh 29.97 in1014.9 mb 0.00 in0.0 mm 0.00 in0.0 mm 0.00 in0.0 mm
03:41 AM 33.8°F1.0°C 26.6°F-3.0°C 75% 8.0 mph WSW12.9 kmh WSW 9.8 mph15.8 kmh 29.97 in1014.9 mb 0.00 in0.0 mm 0.00 in0.0 mm 0.00 in0.0 mm
03:46 AM 33.8°F1.0°C 26.6°F-3.0°C 75% 5.1 mph WSW8.2 kmh WSW 8.1 mph13.0 kmh 29.98 in1015.2 mb 0.00 in0.0 mm 0.00 in0.0 mm 0.00 in0.0 mm
03:51 AM 33.7°F0.9°C 26.5°F-3.1°C 75% 7.2 mph SW11.6 kmh SW 8.7 mph14.0 kmh 29.98 in1015.2 mb 0.00 in0.0 mm 0.00 in0.0 mm 0.00 in0.0 mm
03:56 AM 33.5°F0.8°C 26.3°F-3.2°C 75% 3.7 mph SW6.0 kmh SW 8.7 mph14.0 kmh 29.98 in1015.2 mb 0.00 in0.0 mm 0.00 in0.0 mm 0.00 in0.0 mm
04:02 AM 33.1°F0.6°C 26.0°F-3.3°C 75% 4.2 mph SW6.8 kmh SW 4.9 mph7.9 kmh 29.98 in1015.2 mb 0.00 in0.0 mm 0.00 in0.0 mm 0.00 in0.0 mm
04:07 AM 32.8°F0.4°C 25.7°F-3.5°C 75% 2.9 mph SW4.7 kmh SW 4.9 mph7.9 kmh 29.98 in1015.2 mb 0.00 in0.0 mm 0.00 in0.0 mm 0.00 in0.0 mm
04:12 AM 32.6°F0.3°C 25.8°F-3.4°C 76% 4.3 mph SW6.9 kmh SW 4.7 mph7.6 kmh 29.99 in1015.6 mb 0.00 in0.0 mm 0.00 in0.0 mm 0.00 in0.0 mm
04:17 AM 32.0°F0.0°C 25.4°F-3.7°C 76% 2.8 mph SW4.5 kmh SW 4.7 mph7.6 kmh 29.99 in1015.6 mb 0.00 in0.0 mm 0.00 in0.0 mm 0.00 in0.0 mm
04:22 AM 31.9°F-0.1°C 25.2°F-3.8°C 76% 0.3 mph NE0.5 kmh NE 4.7 mph7.6 kmh 29.99 in1015.6 mb 0.00 in0.0 mm 0.00 in0.0 mm 0.00 in0.0 mm
04:27 AM 31.7°F-0.2°C 25.0°F-3.9°C 76% 4.6 mph NE7.4 kmh NE 5.4 mph8.7 kmh 29.99 in1015.6 mb 0.00 in0.0 mm 0.00 in0.0 mm 0.00 in0.0 mm
04:32 AM 31.3°F-0.4°C 24.7°F-4.1°C 76% 2.3 mph E3.7 kmh E 5.4 mph8.7 kmh 29.99 in1015.6 mb 0.00 in0.0 mm 0.00 in0.0 mm 0.00 in0.0 mm
04:37 AM 31.1°F-0.5°C 24.5°F-4.2°C 76% 1.7 mph E2.7 kmh E 3.8 mph6.1 kmh 29.99 in1015.6 mb 0.00 in0.0 mm 0.00 in0.0 mm 0.00 in0.0 mm
04:42 AM 31.3°F-0.4°C 24.9°F-3.9°C 77% 0.6 mph N1.0 kmh N 3.6 mph5.8 kmh 29.99 in1015.6 mb 0.00 in0.0 mm 0.00 in0.0 mm 0.00 in0.0 mm
04:47 AM 31.7°F-0.2°C 25.3°F-3.7°C 77% 5.3 mph NW8.5 kmh NW 6.7 mph10.8 kmh 29.99 in1015.6 mb 0.00 in0.0 mm 0.00 in0.0 mm 0.00 in0.0 mm
04:52 AM 31.9°F-0.1°C 25.5°F-3.6°C 77% 6.7 mph W10.8 kmh W 7.6 mph12.2 kmh 30.00 in1015.9 mb 0.00 in0.0 mm 0.00 in0.0 mm 0.00 in0.0 mm
04:57 AM 31.9°F-0.1°C 25.2°F-3.8°C 76% 4.4 mph WNW7.1 kmh WNW 7.6 mph12.2 kmh 30.00 in1015.9 mb 0.00 in0.0 mm 0.00 in0.0 mm 0.00 in0.0 mm
05:02 AM 31.5°F-0.3°C 24.9°F-3.9°C 76% 2.3 mph NW3.7 kmh NW 7.6 mph12.2 kmh 30.00 in1015.9 mb 0.00 in0.0 mm 0.00 in0.0 mm 0.00 in0.0 mm
05:07 AM 31.1°F-0.5°C 24.5°F-4.2°C 76% 3.4 mph NE5.5 kmh NE 6.3 mph10.1 kmh 30.00 in1015.9 mb 0.00 in0.0 mm 0.00 in0.0 mm 0.00 in0.0 mm
05:12 AM 30.8°F-0.7°C 24.1°F-4.4°C 76% 0.9 mph NNE1.4 kmh NNE 6.3 mph10.1 kmh 30.01 in1016.3 mb 0.00 in0.0 mm 0.00 in0.0 mm 0.00 in0.0 mm
05:17 AM 30.6°F-0.8°C 24.2°F-4.3°C 77% 0.9 mph NE1.4 kmh NE 5.8 mph9.3 kmh 30.01 in1016.3 mb 0.00 in0.0 mm 0.00 in0.0 mm 0.00 in0.0 mm
05:22 AM 30.6°F-0.8°C 24.2°F-4.3°C 77% 0.9 mph NE1.4 kmh NE 1.8 mph2.9 kmh 30.01 in1016.3 mb 0.00 in0.0 mm 0.00 in0.0 mm 0.00 in0.0 mm
05:27 AM 30.2°F-1.0°C 23.6°F-4.7°C 76% 2.8 mph SW4.5 kmh SW 3.1 mph5.0 kmh 30.02 in1016.6 mb 0.00 in0.0 mm 0.00 in0.0 mm 0.00 in0.0 mm
05:32 AM 29.9°F-1.2°C 23.2°F-4.9°C 76% 1.5 mph SW2.4 kmh SW 3.1 mph5.0 kmh 30.02 in1016.6 mb 0.00 in0.0 mm 0.00 in0.0 mm 0.00 in0.0 mm
05:37 AM 29.7°F-1.3°C 23.1°F-4.9°C 76% 1.0 mph WSW1.6 kmh WSW 1.8 mph2.9 kmh 30.02 in1016.6 mb 0.00 in0.0 mm 0.00 in0.0 mm 0.00 in0.0 mm
05:42 AM 29.7°F-1.3°C 23.1°F-4.9°C 76% 3.3 mph SW5.3 kmh SW 4.0 mph6.4 kmh 30.02 in1016.6 mb 0.00 in0.0 mm 0.00 in0.0 mm 0.00 in0.0 mm
05:47 AM 30.1°F-1.1°C 24.0°F-4.4°C 78% 4.9 mph NW7.9 kmh NW 5.8 mph9.3 kmh 30.02 in1016.6 mb 0.00 in0.0 mm 0.00 in0.0 mm 0.00 in0.0 mm
05:52 AM 30.6°F-0.8°C 24.6°F-4.1°C 78% 4.7 mph W7.6 kmh W 5.8 mph9.3 kmh 30.03 in1016.9 mb 0.00 in0.0 mm 0.00 in0.0 mm 0.00 in0.0 mm
05:57 AM 30.6°F-0.8°C 24.2°F-4.3°C 77% 4.5 mph SW7.2 kmh SW 7.2 mph11.6 kmh 30.02 in1016.6 mb 0.00 in0.0 mm 0.00 in0.0 mm 0.00 in0.0 mm
06:02 AM 30.6°F-0.8°C 24.2°F-4.3°C 77% 7.8 mph WSW12.6 kmh WSW 7.8 mph12.6 kmh 30.03 in1016.9 mb 0.00 in0.0 mm 0.00 in0.0 mm 0.00 in0.0 mm
06:07 AM 31.3°F-0.4°C 24.9°F-3.9°C 77% 6.3 mph WSW10.1 kmh WSW 10.7 mph17.2 kmh 30.03 in1016.9 mb 0.00 in0.0 mm 0.00 in0.0 mm 0.00 in0.0 mm
06:12 AM 31.7°F-0.2°C 25.0°F-3.9°C 76% 6.3 mph WSW10.1 kmh WSW 10.7 mph17.2 kmh 30.04 in1017.3 mb 0.00 in0.0 mm 0.00 in0.0 mm 0.00 in0.0 mm
06:17 AM 32.0°F0.0°C 25.4°F-3.7°C 76% 6.2 mph WSW10.0 kmh WSW 8.7 mph14.0 kmh 30.04 in1017.3 mb 0.00 in0.0 mm 0.00 in0.0 mm 0.00 in0.0 mm
06:22 AM 32.4°F0.2°C 25.7°F-3.5°C 76% 6.3 mph WSW10.1 kmh WSW 8.7 mph14.0 kmh 30.04 in1017.3 mb 0.00 in0.0 mm 0.00 in0.0 mm 0.00 in0.0 mm
06:27 AM 32.8°F0.4°C 26.0°F-3.3°C 76% 3.9 mph W6.3 kmh W 7.6 mph12.2 kmh 30.04 in1017.3 mb 0.00 in0.0 mm 0.00 in0.0 mm 0.00 in0.0 mm
06:32 AM 32.8°F0.4°C 26.0°F-3.3°C 76% 2.6 mph 4.2 kmh 5.4 mph8.7 kmh 30.05 in1017.6 mb 0.00 in0.0 mm 0.00 in0.0 mm 0.00 in0.0 mm
06:37 AM 33.1°F0.6°C 26.0°F-3.3°C 75% 4.7 mph W7.6 kmh W 6.7 mph10.8 kmh 30.05 in1017.6 mb 0.00 in0.0 mm 0.00 in0.0 mm 0.00 in0.0 mm
06:42 AM 33.8°F1.0°C 26.3°F-3.2°C 74% 3.7 mph W6.0 kmh W 6.7 mph10.8 kmh 30.05 in1017.6 mb 0.00 in0.0 mm 0.00 in0.0 mm 0.00 in0.0 mm
06:47 AM 34.4°F1.3°C 26.6°F-3.0°C 73% 4.1 mph WSW6.6 kmh WSW 5.4 mph8.7 kmh 30.05 in1017.6 mb 0.00 in0.0 mm 0.00 in0.0 mm 0.00 in0.0 mm
06:52 AM 34.6°F1.4°C 26.7°F-2.9°C 73% 3.6 mph WSW5.8 kmh WSW 4.7 mph7.6 kmh 30.05 in1017.6 mb 0.00 in0.0 mm 0.00 in0.0 mm 0.00 in0.0 mm
06:57 AM 34.7°F1.5°C 27.2°F-2.7°C 74% 4.6 mph WSW7.4 kmh WSW 5.4 mph8.7 kmh 30.05 in1017.6 mb 0.00 in0.0 mm 0.00 in0.0 mm 0.00 in0.0 mm
07:03 AM 35.3°F1.8°C 27.5°F-2.5°C 73% 3.0 mph W4.8 kmh W 6.9 mph11.1 kmh 30.05 in1017.6 mb 0.00 in0.0 mm 0.00 in0.0 mm 0.00 in0.0 mm
07:08 AM 35.8°F2.1°C 28.0°F-2.2°C 73% 1.4 mph N2.3 kmh N 6.9 mph11.1 kmh 30.06 in1017.9 mb 0.00 in0.0 mm 0.00 in0.0 mm 0.00 in0.0 mm
07:13 AM 36.0°F2.2°C 28.2°F-2.1°C 73% 4.3 mph NNE6.9 kmh NNE 4.7 mph7.6 kmh 30.06 in1017.9 mb 0.00 in0.0 mm 0.00 in0.0 mm 0.00 in0.0 mm
07:18 AM 36.0°F2.2°C 27.8°F-2.3°C 72% 6.9 mph NNE11.1 kmh NNE 8.1 mph13.0 kmh 30.06 in1017.9 mb 0.00 in0.0 mm 0.00 in0.0 mm 0.00 in0.0 mm
07:23 AM 36.0°F2.2°C 27.6°F-2.4°C 71% 5.4 mph N8.7 kmh N 8.1 mph13.0 kmh 30.06 in1017.9 mb 0.00 in0.0 mm 0.00 in0.0 mm 0.00 in0.0 mm
07:28 AM 36.4°F2.4°C 27.9°F-2.3°C 71% 9.4 mph NNE15.1 kmh NNE 11.4 mph18.3 kmh 30.07 in1018.3 mb 0.00 in0.0 mm 0.00 in0.0 mm 0.00 in0.0 mm
07:32 AM 36.4°F2.4°C 27.9°F-2.3°C 71% 8.3 mph N13.4 kmh N 11.4 mph18.3 kmh 30.07 in1018.3 mb 0.00 in0.0 mm 0.00 in0.0 mm 0.00 in0.0 mm
07:37 AM 36.4°F2.4°C 27.9°F-2.3°C 71% 6.5 mph 10.5 kmh 11.4 mph18.3 kmh 30.07 in1018.3 mb 0.00 in0.0 mm 0.00 in0.0 mm 0.00 in0.0 mm
07:42 AM 36.5°F2.5°C 27.7°F-2.4°C 70% 4.7 mph N7.6 kmh N 8.9 mph14.3 kmh 30.07 in1018.3 mb 0.00 in0.0 mm 0.00 in0.0 mm 0.00 in0.0 mm
07:47 AM 36.9°F2.7°C 28.1°F-2.2°C 70% 7.9 mph 12.7 kmh 8.9 mph14.3 kmh 30.07 in1018.3 mb 0.00 in0.0 mm 0.00 in0.0 mm 0.00 in0.0 mm
07:52 AM 37.1°F2.8°C 27.6°F-2.4°C 68% 6.2 mph 10.0 kmh 8.9 mph14.3 kmh 30.07 in1018.3 mb 0.00 in0.0 mm 0.00 in0.0 mm 0.00 in0.0 mm
07:57 AM 37.6°F3.1°C 28.0°F-2.2°C 68% 5.0 mph NE8.0 kmh NE 7.6 mph12.2 kmh 30.07 in1018.3 mb 0.00 in0.0 mm 0.00 in0.0 mm 0.00 in0.0 mm
08:03 AM 38.3°F3.5°C 28.3°F-2.1°C 67% 5.9 mph N9.5 kmh N 7.2 mph11.6 kmh 30.07 in1018.3 mb 0.00 in0.0 mm 0.00 in0.0 mm 0.00 in0.0 mm
08:08 AM 38.7°F3.7°C 28.6°F-1.9°C 67% 2.6 mph E4.2 kmh E 7.2 mph11.6 kmh 30.07 in1018.3 mb 0.00 in0.0 mm 0.00 in0.0 mm 0.00 in0.0 mm
08:13 AM 39.8°F4.3°C 29.6°F-1.3°C 67% 2.5 mph SE4.0 kmh SE 4.9 mph7.9 kmh 30.07 in1018.3 mb 0.00 in0.0 mm 0.00 in0.0 mm 0.00 in0.0 mm
08:18 AM 41.0°F5.0°C 30.9°F-0.6°C 67% 1.8 mph WSW2.9 kmh WSW 3.8 mph6.1 kmh 30.08 in1018.6 mb 0.00 in0.0 mm 0.00 in0.0 mm 0.00 in0.0 mm
08:23 AM 42.1°F5.6°C 32.3°F0.2°C 68% 2.2 mph SSE3.5 kmh SSE 4.3 mph6.9 kmh 30.07 in1018.3 mb 0.00 in0.0 mm 0.00 in0.0 mm 0.00 in0.0 mm
08:29 AM 43.4°F6.3°C 33.3°F0.7°C 67% 0.2 mph SW0.3 kmh SW 3.1 mph5.0 kmh 30.08 in1018.6 mb 0.00 in0.0 mm 0.00 in0.0 mm 0.00 in0.0 mm
08:42 AM 45.4°F7.4°C 33.8°F1.0°C 64% 6.9 mph WSW11.1 kmh WSW 6.9 mph11.1 kmh 30.08 in1018.6 mb 0.00 in0.0 mm 0.00 in0.0 mm 0.00 in0.0 mm
08:43 AM 45.0°F7.2°C 32.4°F0.2°C 61% 8.0 mph WSW12.9 kmh WSW 8.7 mph14.0 kmh 30.08 in1018.6 mb 0.00 in0.0 mm 0.00 in0.0 mm 0.00 in0.0 mm
08:48 AM 43.7°F6.5°C 31.1°F-0.5°C 61% 1.8 mph SE2.9 kmh SE 8.7 mph14.0 kmh 30.08 in1018.6 mb 0.00 in0.0 mm 0.00 in0.0 mm 0.00 in0.0 mm
08:53 AM 44.1°F6.7°C 31.5°F-0.3°C 61% 2.1 mph ENE3.4 kmh ENE 7.8 mph12.6 kmh 30.08 in1018.6 mb 0.00 in0.0 mm 0.00 in0.0 mm 0.00 in0.0 mm
08:58 AM 45.2°F7.3°C 32.6°F0.3°C 61% 2.4 mph NW3.9 kmh NW 5.1 mph8.2 kmh 30.08 in1018.6 mb 0.00 in0.0 mm 0.00 in0.0 mm 0.00 in0.0 mm
09:01 AM 45.4°F7.4°C 32.3°F0.2°C 60% 1.4 mph SW2.3 kmh SW 6.3 mph10.1 kmh 30.08 in1018.6 mb 0.00 in0.0 mm 0.00 in0.0 mm 0.00 in0.0 mm
09:06 AM 45.0°F7.2°C 30.7°F-0.7°C 57% 7.0 mph WSW11.3 kmh WSW 10.1 mph16.3 kmh 30.08 in1018.6 mb 0.00 in0.0 mm 0.00 in0.0 mm 0.00 in0.0 mm
09:11 AM 44.3°F6.8°C 28.2°F-2.1°C 53% 6.0 mph W9.7 kmh W 11.4 mph18.3 kmh 30.08 in1018.6 mb 0.00 in0.0 mm 0.00 in0.0 mm 0.00 in0.0 mm
09:16 AM 43.9°F6.6°C 26.6°F-3.0°C 50% 10.4 mph WNW16.7 kmh WNW 13.2 mph21.2 kmh 30.08 in1018.6 mb 0.00 in0.0 mm 0.00 in0.0 mm 0.00 in0.0 mm
09:40 AM 43.4°F6.3°C 24.9°F-3.9°C 48% 8.9 mph NW14.3 kmh NW 8.9 mph14.3 kmh 30.09 in1019.0 mb 0.00 in0.0 mm 0.00 in0.0 mm 0.00 in0.0 mm
09:42 AM 43.4°F6.3°C 23.9°F-4.5°C 46% 9.9 mph NW15.9 kmh NW 15.4 mph24.8 kmh 30.09 in1019.0 mb 0.00 in0.0 mm 0.00 in0.0 mm 0.00 in0.0 mm
09:43 AM 43.2°F6.2°C 23.8°F-4.6°C 46% 15.2 mph NW24.5 kmh NW 17.4 mph28.0 kmh 30.09 in1019.0 mb 0.00 in0.0 mm 0.00 in0.0 mm 0.00 in0.0 mm
09:45 AM 43.2°F6.2°C 24.3°F-4.3°C 47% 8.9 mph NW14.3 kmh NW 17.4 mph28.0 kmh 30.09 in1019.0 mb 0.00 in0.0 mm 0.00 in0.0 mm 0.00 in0.0 mm
09:47 AM 43.4°F6.3°C 24.4°F-4.2°C 47% 8.1 mph WNW13.0 kmh WNW 17.4 mph28.0 kmh 30.09 in1019.0 mb 0.00 in0.0 mm 0.00 in0.0 mm 0.00 in0.0 mm
09:51 AM 43.6°F6.4°C 24.6°F-4.1°C 47% 11.2 mph NW18.0 kmh NW 17.4 mph28.0 kmh 30.09 in1019.0 mb 0.00 in0.0 mm 0.00 in0.0 mm 0.00 in0.0 mm
10:23 AM 45.4°F7.4°C 24.0°F-4.4°C 43% 5.8 mph NNW9.3 kmh NNW 5.8 mph9.3 kmh 30.10 in1019.3 mb 0.00 in0.0 mm 0.00 in0.0 mm 0.00 in0.0 mm
10:27 AM 45.0°F7.2°C 21.4°F-5.9°C 39% 15.0 mph WNW24.1 kmh WNW 15.0 mph24.1 kmh 30.10 in1019.3 mb 0.00 in0.0 mm 0.00 in0.0 mm 0.00 in0.0 mm
10:33 AM 45.0°F7.2°C 23.2°F-4.9°C 42% 7.5 mph NW12.1 kmh NW 17.9 mph28.8 kmh 30.10 in1019.3 mb 0.00 in0.0 mm 0.00 in0.0 mm 0.00 in0.0 mm
10:38 AM 45.0°F7.2°C 23.8°F-4.6°C 43% 5.9 mph NW9.5 kmh NW 17.9 mph28.8 kmh 30.10 in1019.3 mb 0.00 in0.0 mm 0.00 in0.0 mm 0.00 in0.0 mm
10:43 AM 45.7°F7.6°C 22.8°F-5.1°C 40% 14.9 mph NW24.0 kmh NW 17.2 mph27.7 kmh 30.10 in1019.3 mb 0.00 in0.0 mm 0.00 in0.0 mm 0.00 in0.0 mm
10:48 AM 45.9°F7.7°C 20.3°F-6.5°C 36% 13.6 mph W21.9 kmh W 17.2 mph27.7 kmh 30.10 in1019.3 mb 0.00 in0.0 mm 0.00 in0.0 mm 0.00 in0.0 mm
10:53 AM 45.9°F7.7°C 22.2°F-5.4°C 39% 7.8 mph NW12.6 kmh NW 16.6 mph26.7 kmh 30.10 in1019.3 mb 0.00 in0.0 mm 0.00 in0.0 mm 0.00 in0.0 mm
10:57 AM 46.1°F7.8°C 21.8°F-5.7°C 38% 15.5 mph W24.9 kmh W 17.0 mph27.4 kmh 30.10 in1019.3 mb 0.00 in0.0 mm 0.00 in0.0 mm 0.00 in0.0 mm
11:03 AM 46.1°F7.8°C 21.8°F-5.7°C 38% 15.0 mph NW24.1 kmh NW 19.0 mph30.6 kmh 30.10 in1019.3 mb 0.00 in0.0 mm 0.00 in0.0 mm 0.00 in0.0 mm
11:08 AM 45.9°F7.7°C 20.9°F-6.2°C 37% 8.7 mph WSW14.0 kmh WSW 19.0 mph30.6 kmh 30.11 in1019.6 mb 0.00 in0.0 mm 0.00 in0.0 mm 0.00 in0.0 mm
11:13 AM 46.4°F8.0°C 21.4°F-5.9°C 37% 17.5 mph 28.2 kmh 17.9 mph28.8 kmh 30.11 in1019.6 mb 0.00 in0.0 mm 0.00 in0.0 mm 0.00 in0.0 mm
11:18 AM 46.4°F8.0°C 22.1°F-5.5°C 38% 6.8 mph NNW10.9 kmh NNW 17.9 mph28.8 kmh 30.11 in1019.6 mb 0.00 in0.0 mm 0.00 in0.0 mm 0.00 in0.0 mm
11:23 AM 47.2°F8.4°C 20.7°F-6.3°C 35% 16.5 mph NW26.6 kmh NW 19.0 mph30.6 kmh 30.11 in1019.6 mb 0.00 in0.0 mm 0.00 in0.0 mm 0.00 in0.0 mm
11:28 AM 46.8°F8.2°C 22.4°F-5.3°C 38% 13.9 mph NW22.4 kmh NW 19.0 mph30.6 kmh 30.11 in1019.6 mb 0.00 in0.0 mm 0.00 in0.0 mm 0.00 in0.0 mm
11:33 AM 47.0°F8.3°C 21.9°F-5.6°C 37% 12.6 mph NW20.3 kmh NW 17.4 mph28.0 kmh 30.11 in1019.6 mb 0.00 in0.0 mm 0.00 in0.0 mm 0.00 in0.0 mm
11:38 AM 47.2°F8.4°C 22.1°F-5.5°C 37% 16.6 mph NW26.7 kmh NW 22.6 mph36.4 kmh 30.11 in1019.6 mb 0.00 in0.0 mm 0.00 in0.0 mm 0.00 in0.0 mm
11:43 AM 47.3°F8.5°C 21.5°F-5.8°C 36% 12.3 mph WSW19.8 kmh WSW 22.6 mph36.4 kmh 30.11 in1019.6 mb 0.00 in0.0 mm 0.00 in0.0 mm 0.00 in0.0 mm
11:48 AM 47.5°F8.6°C 23.0°F-5.0°C 38% 11.0 mph NW17.7 kmh NW 15.9 mph25.6 kmh 30.11 in1019.6 mb 0.00 in0.0 mm 0.00 in0.0 mm 0.00 in0.0 mm
11:52 AM 47.7°F8.7°C 23.2°F-4.9°C 38% 16.2 mph NNW26.1 kmh NNW 19.2 mph30.9 kmh 30.11 in1019.6 mb 0.00 in0.0 mm 0.00 in0.0 mm 0.00 in0.0 mm
11:57 AM 47.9°F8.8°C 23.4°F-4.8°C 38% 12.9 mph W20.8 kmh W 19.2 mph30.9 kmh 30.10 in1019.3 mb 0.00 in0.0 mm 0.00 in0.0 mm 0.00 in0.0 mm
12:03 PM 47.9°F8.8°C 22.7°F-5.2°C 37% 13.0 mph NW20.9 kmh NW 19.2 mph30.9 kmh 30.11 in1019.6 mb 0.00 in0.0 mm 0.00 in0.0 mm 0.00 in0.0 mm
12:08 PM 47.5°F8.6°C 21.7°F-5.7°C 36% 10.9 mph W17.5 kmh W 19.2 mph30.9 kmh 30.11 in1019.6 mb 0.00 in0.0 mm 0.00 in0.0 mm 0.00 in0.0 mm
12:13 PM 48.1°F8.9°C 22.9°F-5.1°C 37% 14.0 mph NNW22.5 kmh NNW 19.2 mph30.9 kmh 30.11 in1019.6 mb 0.00 in0.0 mm 0.00 in0.0 mm 0.00 in0.0 mm
12:18 PM 47.9°F8.8°C 20.1°F-6.6°C 33% 18.6 mph WNW29.9 kmh WNW 22.1 mph35.6 kmh 30.11 in1019.6 mb 0.00 in0.0 mm 0.00 in0.0 mm 0.00 in0.0 mm
12:23 PM 47.9°F8.8°C 21.3°F-5.9°C 35% 10.4 mph NW16.7 kmh NW 22.1 mph35.6 kmh 30.11 in1019.6 mb 0.00 in0.0 mm 0.00 in0.0 mm 0.00 in0.0 mm
12:28 PM 48.6°F9.2°C 22.7°F-5.2°C 36% 14.1 mph NW22.7 kmh NW 20.8 mph33.5 kmh 30.11 in1019.6 mb 0.00 in0.0 mm 0.00 in0.0 mm 0.00 in0.0 mm
12:33 PM 48.2°F9.0°C 20.3°F-6.5°C 33% 13.9 mph NW22.4 kmh NW 20.8 mph33.5 kmh 30.11 in1019.6 mb 0.00 in0.0 mm 0.00 in0.0 mm 0.00 in0.0 mm
12:38 PM 48.6°F9.2°C 23.3°F-4.8°C 37% 9.5 mph NW15.3 kmh NW 19.7 mph31.7 kmh 30.11 in1019.6 mb 0.00 in0.0 mm 0.00 in0.0 mm 0.00 in0.0 mm
12:43 PM 49.0°F9.4°C 21.6°F-5.8°C 34% 12.3 mph WSW19.8 kmh WSW 16.3 mph26.2 kmh 30.11 in1019.6 mb 0.00 in0.0 mm 0.00 in0.0 mm 0.00 in0.0 mm
12:48 PM 49.3°F9.6°C 21.2°F-6.0°C 33% 16.8 mph NW27.0 kmh NW 16.8 mph27.0 kmh 30.11 in1019.6 mb 0.00 in0.0 mm 0.00 in0.0 mm 0.00 in0.0 mm
12:53 PM 49.5°F9.7°C 21.4°F-5.9°C 33% 12.9 mph NW20.8 kmh NW 16.8 mph27.0 kmh 30.11 in1019.6 mb 0.00 in0.0 mm 0.00 in0.0 mm 0.00 in0.0 mm
12:58 PM 49.5°F9.7°C 21.4°F-5.9°C 33% 7.4 mph NW11.9 kmh NW 16.3 mph26.2 kmh 30.11 in1019.6 mb 0.00 in0.0 mm 0.00 in0.0 mm 0.00 in0.0 mm
01:03 PM 49.9°F9.9°C 21.1°F-6.1°C 32% 18.3 mph W29.5 kmh W 18.8 mph30.3 kmh 30.12 in1020.0 mb 0.00 in0.0 mm 0.00 in0.0 mm 0.00 in0.0 mm
01:08 PM 49.7°F9.8°C 21.5°F-5.8°C 33% 12.5 mph WNW20.1 kmh WNW 18.8 mph30.3 kmh 30.12 in1020.0 mb 0.00 in0.0 mm 0.00 in0.0 mm 0.00 in0.0 mm
01:13 PM 49.7°F9.8°C 20.9°F-6.2°C 32% 16.7 mph NW26.9 kmh NW 21.5 mph34.6 kmh 30.12 in1020.0 mb 0.00 in0.0 mm 0.00 in0.0 mm 0.00 in0.0 mm
01:18 PM 49.5°F9.7°C 20.1°F-6.6°C 31% 12.3 mph NW19.8 kmh NW 21.5 mph34.6 kmh 30.12 in1020.0 mb 0.00 in0.0 mm 0.00 in0.0 mm 0.00 in0.0 mm
01:23 PM 49.5°F9.7°C 21.4°F-5.9°C 33% 12.9 mph NNW20.8 kmh NNW 16.3 mph26.2 kmh 30.12 in1020.0 mb 0.00 in0.0 mm 0.00 in0.0 mm 0.00 in0.0 mm
01:28 PM 49.9°F9.9°C 21.1°F-6.1°C 32% 7.3 mph NW11.7 kmh NW 14.3 mph23.0 kmh 30.12 in1020.0 mb 0.00 in0.0 mm 0.00 in0.0 mm 0.00 in0.0 mm
01:33 PM 50.2°F10.1°C 21.3°F-5.9°C 32% 15.6 mph NW25.1 kmh NW 17.0 mph27.4 kmh 30.12 in1020.0 mb 0.00 in0.0 mm 0.00 in0.0 mm 0.00 in0.0 mm
01:38 PM 50.2°F10.1°C 20.0°F-6.7°C 30% 14.3 mph WNW23.0 kmh WNW 19.9 mph32.0 kmh 30.13 in1020.3 mb 0.00 in0.0 mm 0.00 in0.0 mm 0.00 in0.0 mm
01:43 PM 50.0°F10.0°C 20.5°F-6.4°C 31% 17.9 mph NW28.8 kmh NW 19.9 mph32.0 kmh 30.13 in1020.3 mb 0.00 in0.0 mm 0.00 in0.0 mm 0.00 in0.0 mm
01:48 PM 50.6°F10.3°C 22.3°F-5.4°C 33% 13.6 mph NW21.9 kmh NW 19.9 mph32.0 kmh 30.13 in1020.3 mb 0.00 in0.0 mm 0.00 in0.0 mm 0.00 in0.0 mm
01:53 PM 50.6°F10.3°C 22.3°F-5.4°C 33% 3.3 mph WNW5.3 kmh WNW 19.0 mph30.6 kmh 30.13 in1020.3 mb 0.00 in0.0 mm 0.00 in0.0 mm 0.00 in0.0 mm
01:58 PM 50.9°F10.5°C 22.0°F-5.6°C 32% 13.6 mph NNW21.9 kmh NNW 19.7 mph31.7 kmh 30.13 in1020.3 mb 0.00 in0.0 mm 0.00 in0.0 mm 0.00 in0.0 mm
02:03 PM 50.9°F10.5°C 22.7°F-5.2°C 33% 9.1 mph NW14.6 kmh NW 19.7 mph31.7 kmh 30.13 in1020.3 mb 0.00 in0.0 mm 0.00 in0.0 mm 0.00 in0.0 mm
02:08 PM 51.1°F10.6°C 22.9°F-5.1°C 33% 11.2 mph WSW18.0 kmh WSW 16.3 mph26.2 kmh 30.13 in1020.3 mb 0.00 in0.0 mm 0.00 in0.0 mm 0.00 in0.0 mm
02:13 PM 51.8°F11.0°C 23.5°F-4.7°C 33% 8.2 mph WSW13.2 kmh WSW 16.3 mph26.2 kmh 30.13 in1020.3 mb 0.00 in0.0 mm 0.00 in0.0 mm 0.00 in0.0 mm
02:18 PM 52.0°F11.1°C 23.0°F-5.0°C 32% 10.1 mph WNW16.3 kmh WNW 20.8 mph33.5 kmh 30.13 in1020.3 mb 0.00 in0.0 mm 0.00 in0.0 mm 0.00 in0.0 mm
02:23 PM 51.8°F11.0°C 22.2°F-5.4°C 31% 11.4 mph NW18.3 kmh NW 20.8 mph33.5 kmh 30.13 in1020.3 mb 0.00 in0.0 mm 0.00 in0.0 mm 0.00 in0.0 mm
02:28 PM 51.7°F10.9°C 22.0°F-5.6°C 31% 8.1 mph WSW13.0 kmh WSW 14.5 mph23.3 kmh 30.13 in1020.3 mb 0.00 in0.0 mm 0.00 in0.0 mm 0.00 in0.0 mm
02:33 PM 51.7°F10.9°C 22.0°F-5.6°C 31% 18.2 mph N29.3 kmh N 18.3 mph29.5 kmh 30.13 in1020.3 mb 0.00 in0.0 mm 0.00 in0.0 mm 0.00 in0.0 mm
02:38 PM 51.7°F10.9°C 22.0°F-5.6°C 31% 12.9 mph NW20.8 kmh NW 18.3 mph29.5 kmh 30.13 in1020.3 mb 0.00 in0.0 mm 0.00 in0.0 mm 0.00 in0.0 mm
02:43 PM 51.5°F10.8°C 22.5°F-5.3°C 32% 6.8 mph NNW10.9 kmh NNW 17.4 mph28.0 kmh 30.13 in1020.3 mb 0.00 in0.0 mm 0.00 in0.0 mm 0.00 in0.0 mm
02:48 PM 51.5°F10.8°C 21.1°F-6.1°C 30% 13.9 mph WNW22.4 kmh WNW 18.6 mph29.9 kmh 30.13 in1020.3 mb 0.00 in0.0 mm 0.00 in0.0 mm 0.00 in0.0 mm
02:53 PM 51.8°F11.0°C 21.4°F-5.9°C 30% 10.1 mph W16.3 kmh W 18.6 mph29.9 kmh 30.13 in1020.3 mb 0.00 in0.0 mm 0.00 in0.0 mm 0.00 in0.0 mm
02:58 PM 52.0°F11.1°C 21.6°F-5.8°C 30% 16.5 mph W26.6 kmh W 20.1 mph32.3 kmh 30.13 in1020.3 mb 0.00 in0.0 mm 0.00 in0.0 mm 0.00 in0.0 mm
03:04 PM 51.8°F11.0°C 22.8°F-5.1°C 32% 5.5 mph NW8.9 kmh NW 20.1 mph32.3 kmh 30.13 in1020.3 mb 0.00 in0.0 mm 0.00 in0.0 mm 0.00 in0.0 mm
03:09 PM 51.8°F11.0°C 21.4°F-5.9°C 30% 18.4 mph NW29.6 kmh NW 18.6 mph29.9 kmh 30.13 in1020.3 mb 0.00 in0.0 mm 0.00 in0.0 mm 0.00 in0.0 mm
03:13 PM 51.7°F10.9°C 20.4°F-6.4°C 29% 11.6 mph WSW18.7 kmh WSW 18.6 mph29.9 kmh 30.13 in1020.3 mb 0.00 in0.0 mm 0.00 in0.0 mm 0.00 in0.0 mm
03:18 PM 52.0°F11.1°C 21.6°F-5.8°C 30% 16.9 mph W27.2 kmh W 19.2 mph30.9 kmh 30.13 in1020.3 mb 0.00 in0.0 mm 0.00 in0.0 mm 0.00 in0.0 mm
03:23 PM 52.7°F11.5°C 24.3°F-4.3°C 33% 8.1 mph WSW13.0 kmh WSW 19.2 mph30.9 kmh 30.13 in1020.3 mb 0.00 in0.0 mm 0.00 in0.0 mm 0.00 in0.0 mm
03:28 PM 52.7°F11.5°C 22.2°F-5.4°C 30% 15.4 mph WNW24.8 kmh WNW 15.9 mph25.6 kmh 30.13 in1020.3 mb 0.00 in0.0 mm 0.00 in0.0 mm 0.00 in0.0 mm
03:33 PM 52.7°F11.5°C 23.0°F-5.0°C 31% 10.5 mph NW16.9 kmh NW 15.9 mph25.6 kmh 30.13 in1020.3 mb 0.00 in0.0 mm 0.00 in0.0 mm 0.00 in0.0 mm
03:38 PM 52.6°F11.4°C 21.2°F-6.0°C 29% 15.9 mph W25.6 kmh W 20.1 mph32.3 kmh 30.13 in1020.3 mb 0.00 in0.0 mm 0.00 in0.0 mm 0.00 in0.0 mm
03:43 PM 52.2°F11.2°C 22.4°F-5.3°C 31% 9.8 mph WSW15.8 kmh WSW 20.1 mph32.3 kmh 30.13 in1020.3 mb 0.00 in0.0 mm 0.00 in0.0 mm 0.00 in0.0 mm
03:48 PM 51.5°F10.8°C 22.5°F-5.3°C 32% 7.9 mph NNW12.7 kmh NNW 16.6 mph26.7 kmh 30.13 in1020.3 mb 0.00 in0.0 mm 0.00 in0.0 mm 0.00 in0.0 mm
03:53 PM 50.8°F10.4°C 21.8°F-5.7°C 32% 9.4 mph WNW15.1 kmh WNW 11.4 mph18.3 kmh 30.13 in1020.3 mb 0.00 in0.0 mm 0.00 in0.0 mm 0.00 in0.0 mm
03:58 PM 50.6°F10.3°C 21.7°F-5.7°C 32% 9.0 mph W14.5 kmh W 12.1 mph19.5 kmh 30.13 in1020.3 mb 0.00 in0.0 mm 0.00 in0.0 mm 0.00 in0.0 mm
04:04 PM 51.5°F10.8°C 21.1°F-6.1°C 30% 12.8 mph WNW20.6 kmh WNW 15.7 mph25.3 kmh 30.13 in1020.3 mb 0.00 in0.0 mm 0.00 in0.0 mm 0.00 in0.0 mm
04:09 PM 51.5°F10.8°C 21.8°F-5.7°C 31% 12.5 mph W20.1 kmh W 15.7 mph25.3 kmh 30.13 in1020.3 mb 0.00 in0.0 mm 0.00 in0.0 mm 0.00 in0.0 mm
04:14 PM 51.8°F11.0°C 21.4°F-5.9°C 30% 16.1 mph W25.9 kmh W 16.8 mph27.0 kmh 30.13 in1020.3 mb 0.00 in0.0 mm 0.00 in0.0 mm 0.00 in0.0 mm
04:19 PM 50.9°F10.5°C 22.0°F-5.6°C 32% 13.9 mph WNW22.4 kmh WNW 16.8 mph27.0 kmh 30.14 in1020.7 mb 0.00 in0.0 mm 0.00 in0.0 mm 0.00 in0.0 mm
04:24 PM 50.8°F10.4°C 22.5°F-5.3°C 33% 8.1 mph NW13.0 kmh NW 15.0 mph24.1 kmh 30.13 in1020.3 mb 0.00 in0.0 mm 0.00 in0.0 mm 0.00 in0.0 mm
04:29 PM 51.5°F10.8°C 22.5°F-5.3°C 32% 14.8 mph WNW23.8 kmh WNW 17.2 mph27.7 kmh 30.14 in1020.7 mb 0.00 in0.0 mm 0.00 in0.0 mm 0.00 in0.0 mm
04:34 PM 51.7°F10.9°C 22.0°F-5.6°C 31% 11.3 mph NW18.2 kmh NW 17.2 mph27.7 kmh 30.14 in1020.7 mb 0.00 in0.0 mm 0.00 in0.0 mm 0.00 in0.0 mm
04:39 PM 51.7°F10.9°C 22.0°F-5.6°C 31% 16.5 mph NW26.6 kmh NW 19.2 mph30.9 kmh 30.14 in1020.7 mb 0.00 in0.0 mm 0.00 in0.0 mm 0.00 in0.0 mm
04:43 PM 51.7°F10.9°C 22.6°F-5.2°C 32% 7.3 mph W11.7 kmh W 19.2 mph30.9 kmh 30.14 in1020.7 mb 0.00 in0.0 mm 0.00 in0.0 mm 0.00 in0.0 mm
04:48 PM 52.2°F11.2°C 23.1°F-4.9°C 32% 15.2 mph NW24.5 kmh NW 16.3 mph26.2 kmh 30.14 in1020.7 mb 0.00 in0.0 mm 0.00 in0.0 mm 0.00 in0.0 mm
04:53 PM 52.0°F11.1°C 22.2°F-5.4°C 31% 12.9 mph WNW20.8 kmh WNW 17.9 mph28.8 kmh 30.14 in1020.7 mb 0.00 in0.0 mm 0.00 in0.0 mm 0.00 in0.0 mm
04:58 PM 51.7°F10.9°C 22.0°F-5.6°C 31% 15.8 mph W25.4 kmh W 17.9 mph28.8 kmh 30.13 in1020.3 mb 0.00 in0.0 mm 0.00 in0.0 mm 0.00 in0.0 mm
05:04 PM 51.3°F10.7°C 22.3°F-5.4°C 32% 12.9 mph NW20.8 kmh NW 16.8 mph27.0 kmh 30.14 in1020.7 mb 0.00 in0.0 mm 0.00 in0.0 mm 0.00 in0.0 mm
05:09 PM 51.5°F10.8°C 21.8°F-5.7°C 31% 10.2 mph WSW16.4 kmh WSW 16.3 mph26.2 kmh 30.14 in1020.7 mb 0.00 in0.0 mm 0.00 in0.0 mm 0.00 in0.0 mm
05:14 PM 51.7°F10.9°C 23.3°F-4.8°C 33% 7.1 mph NNW11.4 kmh NNW 13.2 mph21.2 kmh 30.15 in1021.0 mb 0.00 in0.0 mm 0.00 in0.0 mm 0.00 in0.0 mm
05:19 PM 51.8°F11.0°C 22.8°F-5.1°C 32% 14.2 mph W22.9 kmh W 17.0 mph27.4 kmh 30.15 in1021.0 mb 0.00 in0.0 mm 0.00 in0.0 mm 0.00 in0.0 mm
05:24 PM 51.8°F11.0°C 22.8°F-5.1°C 32% 12.1 mph NNW19.5 kmh NNW 17.0 mph27.4 kmh 30.15 in1021.0 mb 0.00 in0.0 mm 0.00 in0.0 mm 0.00 in0.0 mm
05:29 PM 51.3°F10.7°C 22.3°F-5.4°C 32% 6.6 mph NW10.6 kmh NW 16.3 mph26.2 kmh 30.15 in1021.0 mb 0.00 in0.0 mm 0.00 in0.0 mm 0.00 in0.0 mm
05:34 PM 50.9°F10.5°C 22.7°F-5.2°C 33% 12.8 mph NW20.6 kmh NW 16.3 mph26.2 kmh 30.15 in1021.0 mb 0.00 in0.0 mm 0.00 in0.0 mm 0.00 in0.0 mm
05:39 PM 50.9°F10.5°C 22.7°F-5.2°C 33% 9.8 mph NNW15.8 kmh NNW 13.4 mph21.6 kmh 30.15 in1021.0 mb 0.00 in0.0 mm 0.00 in0.0 mm 0.00 in0.0 mm
05:44 PM 50.8°F10.4°C 22.5°F-5.3°C 33% 10.1 mph NW16.3 kmh NW 13.4 mph21.6 kmh 30.15 in1021.0 mb 0.00 in0.0 mm 0.00 in0.0 mm 0.00 in0.0 mm
05:49 PM 50.4°F10.2°C 22.1°F-5.5°C 33% 11.8 mph NW19.0 kmh NW 12.1 mph19.5 kmh 30.15 in1021.0 mb 0.00 in0.0 mm 0.00 in0.0 mm 0.00 in0.0 mm
05:54 PM 50.2°F10.1°C 22.7°F-5.2°C 34% 8.6 mph WNW13.8 kmh WNW 12.1 mph19.5 kmh 30.15 in1021.0 mb 0.00 in0.0 mm 0.00 in0.0 mm 0.00 in0.0 mm
05:59 PM 50.0°F10.0°C 22.5°F-5.3°C 34% 3.2 mph NNW5.1 kmh NNW 9.2 mph14.8 kmh 30.15 in1021.0 mb 0.00 in0.0 mm 0.00 in0.0 mm 0.00 in0.0 mm
06:04 PM 50.2°F10.1°C 22.7°F-5.2°C 34% 6.7 mph NW10.8 kmh NW 8.5 mph13.7 kmh 30.15 in1021.0 mb 0.00 in0.0 mm 0.00 in0.0 mm 0.00 in0.0 mm
06:09 PM 50.4°F10.2°C 22.9°F-5.1°C 34% 8.4 mph NW13.5 kmh NW 9.2 mph14.8 kmh 30.15 in1021.0 mb 0.00 in0.0 mm 0.00 in0.0 mm 0.00 in0.0 mm
06:14 PM 50.2°F10.1°C 22.7°F-5.2°C 34% 10.9 mph NW17.5 kmh NW 11.4 mph18.3 kmh 30.15 in1021.0 mb 0.00 in0.0 mm 0.00 in0.0 mm 0.00 in0.0 mm
06:19 PM 49.9°F9.9°C 22.4°F-5.3°C 34% 11.1 mph NNW17.9 kmh NNW 11.4 mph18.3 kmh 30.16 in1021.3 mb 0.00 in0.0 mm 0.00 in0.0 mm 0.00 in0.0 mm
06:24 PM 49.3°F9.6°C 22.0°F-5.6°C 34% 9.0 mph NW14.5 kmh NW 11.4 mph18.3 kmh 30.16 in1021.3 mb 0.00 in0.0 mm 0.00 in0.0 mm 0.00 in0.0 mm
06:29 PM 49.1°F9.5°C 23.1°F-4.9°C 36% 7.8 mph NW12.6 kmh NW 10.1 mph16.3 kmh 30.16 in1021.3 mb 0.00 in0.0 mm 0.00 in0.0 mm 0.00 in0.0 mm
06:34 PM 49.0°F9.4°C 23.0°F-5.0°C 36% 10.5 mph NW16.9 kmh NW 11.9 mph19.2 kmh 30.16 in1021.3 mb 0.00 in0.0 mm 0.00 in0.0 mm 0.00 in0.0 mm
06:39 PM 48.6°F9.2°C 22.7°F-5.2°C 36% 7.9 mph NW12.7 kmh NW 11.9 mph19.2 kmh 30.16 in1021.3 mb 0.00 in0.0 mm 0.00 in0.0 mm 0.00 in0.0 mm
06:44 PM 48.4°F9.1°C 23.2°F-4.9°C 37% 8.1 mph W13.0 kmh W 10.5 mph16.9 kmh 30.16 in1021.3 mb 0.00 in0.0 mm 0.00 in0.0 mm 0.00 in0.0 mm
06:49 PM 48.2°F9.0°C 23.1°F-4.9°C 37% 5.4 mph NW8.7 kmh NW 10.1 mph16.3 kmh 30.16 in1021.3 mb 0.00 in0.0 mm 0.00 in0.0 mm 0.00 in0.0 mm
06:54 PM 47.9°F8.8°C 22.7°F-5.2°C 37% 6.4 mph W10.3 kmh W 9.2 mph14.8 kmh 30.17 in1021.7 mb 0.00 in0.0 mm 0.00 in0.0 mm 0.00 in0.0 mm
06:59 PM 47.7°F8.7°C 23.2°F-4.9°C 38% 6.3 mph WNW10.1 kmh WNW 7.4 mph11.9 kmh 30.17 in1021.7 mb 0.00 in0.0 mm 0.00 in0.0 mm 0.00 in0.0 mm
07:04 PM 47.5°F8.6°C 23.0°F-5.0°C 38% 6.3 mph W10.1 kmh W 7.8 mph12.6 kmh 30.17 in1021.7 mb 0.00 in0.0 mm 0.00 in0.0 mm 0.00 in0.0 mm
07:09 PM 47.2°F8.4°C 22.7°F-5.2°C 38% 6.4 mph W10.3 kmh W 7.8 mph12.6 kmh 30.17 in1021.7 mb 0.00 in0.0 mm 0.00 in0.0 mm 0.00 in0.0 mm
07:14 PM 46.8°F8.2°C 23.0°F-5.0°C 39% 5.3 mph W8.5 kmh W 7.2 mph11.6 kmh 30.17 in1021.7 mb 0.00 in0.0 mm 0.00 in0.0 mm 0.00 in0.0 mm
07:19 PM 46.6°F8.1°C 22.9°F-5.1°C 39% 5.1 mph W8.2 kmh W 6.9 mph11.1 kmh 30.17 in1021.7 mb 0.00 in0.0 mm 0.00 in0.0 mm 0.00 in0.0 mm
07:24 PM 46.3°F7.9°C 23.2°F-4.9°C 40% 5.5 mph W8.9 kmh W 6.5 mph10.5 kmh 30.17 in1021.7 mb 0.00 in0.0 mm 0.00 in0.0 mm 0.00 in0.0 mm
07:29 PM 46.1°F7.8°C 23.0°F-5.0°C 40% 4.6 mph W7.4 kmh W 6.7 mph10.8 kmh 30.18 in1022.0 mb 0.00 in0.0 mm 0.00 in0.0 mm 0.00 in0.0 mm
07:34 PM 45.7°F7.6°C 22.8°F-5.1°C 40% 3.5 mph WSW5.6 kmh WSW 6.7 mph10.8 kmh 30.18 in1022.0 mb 0.00 in0.0 mm 0.00 in0.0 mm 0.00 in0.0 mm
07:39 PM 45.4°F7.4°C 23.0°F-5.0°C 41% 1.2 mph W1.9 kmh W 4.0 mph6.4 kmh 30.18 in1022.0 mb 0.00 in0.0 mm 0.00 in0.0 mm 0.00 in0.0 mm
07:44 PM 45.0°F7.2°C 23.2°F-4.9°C 42% 0.4 mph NW0.6 kmh NW 2.9 mph4.7 kmh 30.18 in1022.0 mb 0.00 in0.0 mm 0.00 in0.0 mm 0.00 in0.0 mm
07:49 PM 44.8°F7.1°C 23.1°F-4.9°C 42% 0.4 mph NW0.6 kmh NW 1.3 mph2.1 kmh 30.18 in1022.0 mb 0.00 in0.0 mm 0.00 in0.0 mm 0.00 in0.0 mm
07:54 PM 44.5°F6.9°C 22.7°F-5.2°C 42% 0.2 mph NNW0.3 kmh NNW 1.1 mph1.8 kmh 30.18 in1022.0 mb 0.00 in0.0 mm 0.00 in0.0 mm 0.00 in0.0 mm
08:00 PM 44.1°F6.7°C 23.0°F-5.0°C 43% 1.0 mph W1.6 kmh W 2.0 mph3.2 kmh 30.19 in1022.4 mb 0.00 in0.0 mm 0.00 in0.0 mm 0.00 in0.0 mm
08:04 PM 43.7°F6.5°C 22.6°F-5.2°C 43% Calm Calm 2.0 mph3.2 kmh 30.19 in1022.4 mb 0.00 in0.0 mm 0.00 in0.0 mm 0.00 in0.0 mm
08:09 PM 43.6°F6.4°C 23.0°F-5.0°C 44% 0.4 mph W0.6 kmh W 0.7 mph1.1 kmh 30.19 in1022.4 mb 0.00 in0.0 mm 0.00 in0.0 mm 0.00 in0.0 mm
08:14 PM 43.2°F6.2°C 22.7°F-5.2°C 44% Calm Calm 0.4 mph0.6 kmh 30.19 in1022.4 mb 0.00 in0.0 mm 0.00 in0.0 mm 0.00 in0.0 mm
08:19 PM 42.8°F6.0°C 22.9°F-5.1°C 45% Calm Calm 0.4 mph0.6 kmh 30.19 in1022.4 mb 0.00 in0.0 mm 0.00 in0.0 mm 0.00 in0.0 mm
08:24 PM 42.3°F5.7°C 22.3°F-5.4°C 45% 0.3 mph NW0.5 kmh NW 0.4 mph0.6 kmh 30.20 in1022.7 mb 0.00 in0.0 mm 0.00 in0.0 mm 0.00 in0.0 mm
08:29 PM 41.8°F5.4°C 22.9°F-5.1°C 47% 2.7 mph W4.3 kmh W 3.1 mph5.0 kmh 30.20 in1022.7 mb 0.00 in0.0 mm 0.00 in0.0 mm 0.00 in0.0 mm
08:34 PM 41.2°F5.1°C 22.9°F-5.1°C 48% 0.9 mph NW1.4 kmh NW 3.1 mph5.0 kmh 30.20 in1022.7 mb 0.00 in0.0 mm 0.00 in0.0 mm 0.00 in0.0 mm
08:39 PM 40.7°F4.8°C 21.9°F-5.6°C 47% 2.7 mph 4.3 kmh 3.1 mph5.0 kmh 30.20 in1022.7 mb 0.00 in0.0 mm 0.00 in0.0 mm 0.00 in0.0 mm
08:44 PM 40.1°F4.5°C 21.9°F-5.6°C 48% 2.2 mph 3.5 kmh 4.0 mph6.4 kmh 30.20 in1022.7 mb 0.00 in0.0 mm 0.00 in0.0 mm 0.00 in0.0 mm
08:49 PM 39.8°F4.3°C 22.2°F-5.4°C 49% 4.6 mph 7.4 kmh 5.4 mph8.7 kmh 30.21 in1023.0 mb 0.00 in0.0 mm 0.00 in0.0 mm 0.00 in0.0 mm
08:54 PM 39.6°F4.2°C 22.5°F-5.3°C 50% 4.7 mph N7.6 kmh N 5.4 mph8.7 kmh 30.21 in1023.0 mb 0.00 in0.0 mm 0.00 in0.0 mm 0.00 in0.0 mm
09:00 PM 40.0°F4.4°C 22.8°F-5.1°C 50% 5.7 mph NW9.2 kmh NW 7.2 mph11.6 kmh 30.21 in1023.0 mb 0.00 in0.0 mm 0.00 in0.0 mm 0.00 in0.0 mm
09:05 PM 40.0°F4.4°C 22.8°F-5.1°C 50% 4.1 mph NNW6.6 kmh NNW 7.2 mph11.6 kmh 30.21 in1023.0 mb 0.00 in0.0 mm 0.00 in0.0 mm 0.00 in0.0 mm
09:10 PM 39.8°F4.3°C 22.6°F-5.2°C 50% 1.8 mph NNW2.9 kmh NNW 4.7 mph7.6 kmh 30.21 in1023.0 mb 0.00 in0.0 mm 0.00 in0.0 mm 0.00 in0.0 mm
09:15 PM 39.4°F4.1°C 22.3°F-5.4°C 50% 2.3 mph NNW3.7 kmh NNW 3.4 mph5.5 kmh 30.22 in1023.4 mb 0.00 in0.0 mm 0.00 in0.0 mm 0.00 in0.0 mm
09:20 PM 39.1°F3.9°C 22.0°F-5.6°C 50% 3.0 mph 4.8 kmh 3.6 mph5.8 kmh 30.22 in1023.4 mb 0.00 in0.0 mm 0.00 in0.0 mm 0.00 in0.0 mm
09:24 PM 38.7°F3.7°C 22.1°F-5.5°C 51% 4.6 mph 7.4 kmh 4.9 mph7.9 kmh 30.22 in1023.4 mb 0.00 in0.0 mm 0.00 in0.0 mm 0.00 in0.0 mm
09:29 PM 38.5°F3.6°C 22.3°F-5.4°C 52% 4.0 mph NNW6.4 kmh NNW 4.9 mph7.9 kmh 30.22 in1023.4 mb 0.00 in0.0 mm 0.00 in0.0 mm 0.00 in0.0 mm
09:34 PM 38.3°F3.5°C 22.2°F-5.4°C 52% 3.3 mph N5.3 kmh N 4.5 mph7.2 kmh 30.22 in1023.4 mb 0.00 in0.0 mm 0.00 in0.0 mm 0.00 in0.0 mm
09:39 PM 38.2°F3.4°C 22.5°F-5.3°C 53% 2.6 mph NNW4.2 kmh NNW 4.0 mph6.4 kmh 30.22 in1023.4 mb 0.00 in0.0 mm 0.00 in0.0 mm 0.00 in0.0 mm
09:44 PM 37.8°F3.2°C 22.1°F-5.5°C 53% 4.3 mph NNW6.9 kmh NNW 4.5 mph7.2 kmh 30.23 in1023.7 mb 0.00 in0.0 mm 0.00 in0.0 mm 0.00 in0.0 mm
09:49 PM 37.6°F3.1°C 22.0°F-5.6°C 53% 3.9 mph NNW6.3 kmh NNW 4.5 mph7.2 kmh 30.23 in1023.7 mb 0.00 in0.0 mm 0.00 in0.0 mm 0.00 in0.0 mm
09:54 PM 37.4°F3.0°C 22.2°F-5.4°C 54% 3.2 mph N5.1 kmh N 4.3 mph6.9 kmh 30.23 in1023.7 mb 0.00 in0.0 mm 0.00 in0.0 mm 0.00 in0.0 mm
10:00 PM 37.3°F2.9°C 22.1°F-5.5°C 54% 2.6 mph N4.2 kmh N 3.4 mph5.5 kmh 30.23 in1023.7 mb 0.00 in0.0 mm 0.00 in0.0 mm 0.00 in0.0 mm
10:05 PM 37.1°F2.8°C 22.0°F-5.6°C 54% 3.1 mph 5.0 kmh 3.4 mph5.5 kmh 30.23 in1023.7 mb 0.00 in0.0 mm 0.00 in0.0 mm 0.00 in0.0 mm
10:10 PM 36.7°F2.6°C 21.6°F-5.8°C 54% Calm Calm 3.4 mph5.5 kmh 30.23 in1023.7 mb 0.00 in0.0 mm 0.00 in0.0 mm 0.00 in0.0 mm
10:15 PM 36.4°F2.4°C 21.7°F-5.7°C 55% 0.4 mph E0.6 kmh E 3.4 mph5.5 kmh 30.23 in1023.7 mb 0.00 in0.0 mm 0.00 in0.0 mm 0.00 in0.0 mm
10:20 PM 36.0°F2.2°C 21.4°F-5.9°C 55% Calm Calm 0.7 mph1.1 kmh 30.23 in1023.7 mb 0.00 in0.0 mm 0.00 in0.0 mm 0.00 in0.0 mm
10:25 PM 35.6°F2.0°C 21.5°F-5.8°C 56% 1.1 mph NW1.8 kmh NW 1.1 mph1.8 kmh 30.23 in1023.7 mb 0.00 in0.0 mm 0.00 in0.0 mm 0.00 in0.0 mm
10:30 PM 34.9°F1.6°C 21.3°F-5.9°C 57% 1.1 mph NW1.8 kmh NW 2.2 mph3.5 kmh 30.23 in1023.7 mb 0.00 in0.0 mm 0.00 in0.0 mm 0.00 in0.0 mm
10:35 PM 34.4°F1.3°C 20.7°F-6.3°C 57% 1.0 mph NNW1.6 kmh NNW 2.2 mph3.5 kmh 30.23 in1023.7 mb 0.00 in0.0 mm 0.00 in0.0 mm 0.00 in0.0 mm
10:40 PM 33.8°F1.0°C 20.5°F-6.4°C 58% Calm Calm 1.1 mph1.8 kmh 30.23 in1023.7 mb 0.00 in0.0 mm 0.00 in0.0 mm 0.00 in0.0 mm
10:45 PM 33.1°F0.6°C 20.3°F-6.5°C 59% Calm Calm 0.9 mph1.4 kmh 30.23 in1023.7 mb 0.00 in0.0 mm 0.00 in0.0 mm 0.00 in0.0 mm
10:50 PM 32.8°F0.4°C 20.4°F-6.4°C 60% Calm Calm 0.9 mph1.4 kmh 30.23 in1023.7 mb 0.00 in0.0 mm 0.00 in0.0 mm 0.00 in0.0 mm
10:54 PM 32.4°F0.2°C 20.5°F-6.4°C 61% 0.6 mph NNW1.0 kmh NNW 0.9 mph1.4 kmh 30.23 in1023.7 mb 0.00 in0.0 mm 0.00 in0.0 mm 0.00 in0.0 mm
11:00 PM 32.2°F0.1°C 20.4°F-6.4°C 61% Calm Calm 0.9 mph1.4 kmh 30.23 in1023.7 mb 0.00 in0.0 mm 0.00 in0.0 mm 0.00 in0.0 mm
11:05 PM 32.0°F0.0°C 20.2°F-6.6°C 61% 0.8 mph SW1.3 kmh SW 1.1 mph1.8 kmh 30.23 in1023.7 mb 0.00 in0.0 mm 0.00 in0.0 mm 0.00 in0.0 mm
11:10 PM 31.9°F-0.1°C 20.3°F-6.5°C 62% 0.8 mph WSW1.3 kmh WSW 2.2 mph3.5 kmh 30.23 in1023.7 mb 0.00 in0.0 mm 0.00 in0.0 mm 0.00 in0.0 mm
11:15 PM 31.9°F-0.1°C 20.3°F-6.5°C 62% Calm Calm 2.2 mph3.5 kmh 30.23 in1023.7 mb 0.00 in0.0 mm 0.00 in0.0 mm 0.00 in0.0 mm
11:20 PM 31.7°F-0.2°C 20.2°F-6.6°C 62% Calm Calm 0.4 mph0.6 kmh 30.23 in1023.7 mb 0.00 in0.0 mm 0.00 in0.0 mm 0.00 in0.0 mm
11:25 PM 31.5°F-0.3°C 20.0°F-6.7°C 62% Calm Calm 0.9 mph1.4 kmh 30.24 in1024.0 mb 0.00 in0.0 mm 0.00 in0.0 mm 0.00 in0.0 mm
11:30 PM 31.3°F-0.4°C 19.8°F-6.8°C 62% 0.3 mph NE0.5 kmh NE 0.9 mph1.4 kmh 30.24 in1024.0 mb 0.00 in0.0 mm 0.00 in0.0 mm 0.00 in0.0 mm
11:35 PM 31.7°F-0.2°C 20.5°F-6.4°C 63% 0.9 mph 1.4 kmh 0.9 mph1.4 kmh 30.23 in1023.7 mb 0.00 in0.0 mm 0.00 in0.0 mm 0.00 in0.0 mm
11:40 PM 31.7°F-0.2°C 20.9°F-6.2°C 64% 0.3 mph N0.5 kmh N 1.1 mph1.8 kmh 30.24 in1024.0 mb 0.00 in0.0 mm 0.00 in0.0 mm 0.00 in0.0 mm
11:45 PM 31.7°F-0.2°C 20.5°F-6.4°C 63% 0.2 mph NNE0.3 kmh NNE 1.1 mph1.8 kmh 30.24 in1024.0 mb 0.00 in0.0 mm 0.00 in0.0 mm 0.00 in0.0 mm
11:50 PM 31.5°F-0.3°C 20.3°F-6.5°C 63% Calm Calm 0.2 mph0.3 kmh 30.24 in1024.0 mb 0.00 in0.0 mm 0.00 in0.0 mm 0.00 in0.0 mm
11:55 PM 31.1°F-0.5°C 20.3°F-6.5°C 64% Calm Calm -- 30.24 in1024.0 mb 0.00 in0.0 mm 0.00 in0.0 mm 0.00 in0.0 mm